createdAt,value
2023-06-21T00:02:38.261Z,19.9
2023-06-21T00:05:38.219Z,19.9
2023-06-21T00:08:38.234Z,19.9
2023-06-21T00:11:38.231Z,19.9
2023-06-21T00:14:38.239Z,19.9
2023-06-21T00:17:38.241Z,19.9
2023-06-21T00:20:38.229Z,19.9
2023-06-21T00:23:38.247Z,19.9
2023-06-21T00:26:38.235Z,19.9
2023-06-21T00:29:38.233Z,19.9
2023-06-21T00:32:38.285Z,19.9
2023-06-21T00:35:38.248Z,19.9
2023-06-21T00:38:38.241Z,19.9
2023-06-21T00:41:38.232Z,19.9
2023-06-21T00:44:38.232Z,19.9
2023-06-21T00:47:38.255Z,19.9
2023-06-21T00:50:38.233Z,19.9
2023-06-21T00:53:38.252Z,19.9
2023-06-21T00:56:38.234Z,19.9
2023-06-21T00:59:38.237Z,19.9
2023-06-21T01:02:38.272Z,19.9
2023-06-21T01:05:38.265Z,19.9
2023-06-21T01:08:38.266Z,19.9
2023-06-21T01:11:38.260Z,19.9
2023-06-21T01:14:38.250Z,19.9
2023-06-21T01:17:38.271Z,19.9
2023-06-21T01:20:38.246Z,19.9
2023-06-21T01:23:38.263Z,19.9
2023-06-21T01:26:38.249Z,19.9
2023-06-21T01:29:38.253Z,19.9
2023-06-21T01:32:38.260Z,19.9
2023-06-21T01:35:38.256Z,19.9
2023-06-21T01:38:38.282Z,19.9
2023-06-21T01:41:38.258Z,19.9
2023-06-21T01:44:38.270Z,19.9
2023-06-21T01:47:38.298Z,19.9
2023-06-21T01:50:38.269Z,19.8
2023-06-21T01:53:38.291Z,19.8
2023-06-21T01:56:38.294Z,19.9
2023-06-21T01:59:38.281Z,19.9
2023-06-21T02:02:38.284Z,19.8
2023-06-21T02:05:38.307Z,19.9
2023-06-21T02:08:38.284Z,19.9
2023-06-21T02:11:38.274Z,19.9
2023-06-21T02:14:38.282Z,19.8
2023-06-21T02:17:38.328Z,19.8
2023-06-21T02:20:38.282Z,19.9
2023-06-21T02:23:38.306Z,19.8
2023-06-21T02:26:38.317Z,19.8
2023-06-21T02:29:38.295Z,19.8
2023-06-21T02:32:38.320Z,19.8
2023-06-21T02:35:38.449Z,19.8
2023-06-21T02:38:38.314Z,19.8
2023-06-21T02:41:38.318Z,19.8
2023-06-21T02:44:38.322Z,19.8
2023-06-21T02:47:38.335Z,19.8
2023-06-21T02:50:38.337Z,19.8
2023-06-21T02:53:38.334Z,19.8
2023-06-21T02:56:38.342Z,19.8
2023-06-21T02:59:38.331Z,19.8
2023-06-21T03:02:38.346Z,19.8
2023-06-21T03:05:38.340Z,19.8
2023-06-21T03:08:38.353Z,19.8
2023-06-21T03:11:38.351Z,19.8
2023-06-21T03:14:38.363Z,19.8
2023-06-21T03:17:38.409Z,19.8
2023-06-21T03:20:38.366Z,19.8
2023-06-21T03:23:38.375Z,19.8
2023-06-21T03:26:38.363Z,19.8
2023-06-21T03:29:38.365Z,19.8
2023-06-21T03:32:38.386Z,19.8
2023-06-21T03:35:38.379Z,19.8
2023-06-21T03:38:38.399Z,19.8
2023-06-21T03:41:38.387Z,19.8
2023-06-21T03:44:38.411Z,19.8
2023-06-21T03:47:38.418Z,19.8
2023-06-21T03:50:38.418Z,19.8
2023-06-21T03:53:38.429Z,19.8
2023-06-21T03:56:38.425Z,19.8
2023-06-21T03:59:38.530Z,19.8
2023-06-21T04:02:38.444Z,19.8
2023-06-21T04:05:38.452Z,19.8
2023-06-21T04:08:38.475Z,19.8
2023-06-21T04:11:38.477Z,19.8
2023-06-21T04:14:38.477Z,19.8
2023-06-21T04:17:38.508Z,19.8
2023-06-21T04:20:38.502Z,19.8
2023-06-21T04:23:38.506Z,19.8
2023-06-21T04:26:38.501Z,19.8
2023-06-21T04:29:38.519Z,19.8
2023-06-21T04:32:38.529Z,19.8
2023-06-21T04:35:38.526Z,19.8
2023-06-21T04:38:38.567Z,19.8
2023-06-21T04:41:38.544Z,19.8
2023-06-21T04:44:38.562Z,19.8
2023-06-21T04:47:38.633Z,19.8
2023-06-21T04:50:38.610Z,19.8
2023-06-21T04:53:38.652Z,19.8
2023-06-21T04:56:38.568Z,19.8
2023-06-21T04:59:38.579Z,19.8
2023-06-21T05:02:38.611Z,19.8
2023-06-21T05:05:38.592Z,19.7
2023-06-21T05:08:38.604Z,19.8
2023-06-21T05:11:38.613Z,19.7
2023-06-21T05:14:38.610Z,19.8
2023-06-21T05:17:38.635Z,19.7
2023-06-21T05:20:38.620Z,19.7
2023-06-21T05:23:38.653Z,19.7
2023-06-21T05:26:38.666Z,19.7
2023-06-21T05:29:38.648Z,19.7
2023-06-21T05:32:38.740Z,19.7
2023-06-21T05:35:38.662Z,19.7
2023-06-21T05:38:38.691Z,19.7
2023-06-21T05:41:38.688Z,19.7
2023-06-21T05:44:38.692Z,19.7
2023-06-21T05:47:38.724Z,19.7
2023-06-21T05:50:38.710Z,19.7
2023-06-21T05:53:38.720Z,19.7
2023-06-21T05:56:38.714Z,19.7
2023-06-21T05:59:38.719Z,19.7
2023-06-21T06:02:38.737Z,19.7
2023-06-21T06:05:38.732Z,19.7
2023-06-21T06:08:38.756Z,19.7
2023-06-21T06:11:38.754Z,19.7
2023-06-21T06:14:38.752Z,19.7
2023-06-21T06:17:38.772Z,19.7
2023-06-21T06:20:38.767Z,19.6
2023-06-21T06:23:38.783Z,19.6
2023-06-21T06:26:38.779Z,19.6
2023-06-21T06:29:38.792Z,19.6
2023-06-21T06:32:38.883Z,19.6
2023-06-21T06:35:38.793Z,19.6
2023-06-21T06:38:38.799Z,19.6
2023-06-21T06:41:38.799Z,19.6
2023-06-21T06:44:38.797Z,19.6
2023-06-21T06:47:38.827Z,19.6
2023-06-21T06:50:38.806Z,19.6
2023-06-21T06:53:38.820Z,19.6
2023-06-21T06:56:38.816Z,19.6
2023-06-21T06:59:38.841Z,19.6
2023-06-21T07:02:38.889Z,19.6
2023-06-21T07:05:38.832Z,19.6
2023-06-21T07:08:38.840Z,19.6
2023-06-21T07:11:38.841Z,19.6
2023-06-21T07:14:38.837Z,19.6
2023-06-21T07:17:38.877Z,19.6
2023-06-21T07:20:38.886Z,19.6
2023-06-21T07:23:38.919Z,19.6
2023-06-21T07:26:38.852Z,19.6
2023-06-21T07:29:38.863Z,19.6
2023-06-21T07:32:38.869Z,19.6
2023-06-21T07:35:38.868Z,19.6
2023-06-21T07:38:38.874Z,19.6
2023-06-21T07:41:38.894Z,19.6
2023-06-21T07:44:38.869Z,19.6
2023-06-21T07:47:38.888Z,19.6
2023-06-21T07:50:38.874Z,19.6
2023-06-21T07:53:38.882Z,19.6
2023-06-21T07:56:38.882Z,19.6
2023-06-21T07:59:38.902Z,19.6
2023-06-21T08:02:38.906Z,19.6
2023-06-21T08:05:38.882Z,19.6
2023-06-21T08:08:38.905Z,19.6
2023-06-21T08:11:38.903Z,19.6
2023-06-21T08:14:38.906Z,19.6
2023-06-21T08:17:38.954Z,19.6
2023-06-21T08:20:38.930Z,19.6
2023-06-21T08:23:38.947Z,19.6
2023-06-21T08:26:38.957Z,19.6
2023-06-21T08:29:38.969Z,19.6
2023-06-21T08:32:38.999Z,19.6
2023-06-21T08:35:38.996Z,19.6
2023-06-21T08:38:39.022Z,19.6
2023-06-21T08:41:39.014Z,19.6
2023-06-21T08:44:39.035Z,19.6
2023-06-21T08:47:39.113Z,19.6
2023-06-21T08:50:39.057Z,19.6
2023-06-21T08:53:39.076Z,19.6
2023-06-21T08:56:39.080Z,19.6
2023-06-21T08:59:39.093Z,19.6
2023-06-21T09:02:39.182Z,19.6
2023-06-21T09:05:39.118Z,19.6
2023-06-21T09:08:39.190Z,19.6
2023-06-21T09:11:39.149Z,19.6
2023-06-21T09:14:39.157Z,19.6
2023-06-21T09:17:39.181Z,19.6
2023-06-21T09:20:39.185Z,19.6
2023-06-21T09:23:39.201Z,19.6
2023-06-21T09:26:39.205Z,19.6
2023-06-21T09:29:39.217Z,19.6
2023-06-21T09:32:39.338Z,19.6
2023-06-21T09:35:39.269Z,19.6
2023-06-21T09:38:39.305Z,19.6
2023-06-21T09:41:39.278Z,19.6
2023-06-21T09:44:39.281Z,19.6
2023-06-21T09:47:39.363Z,19.6
2023-06-21T09:50:39.314Z,19.6
2023-06-21T09:53:39.327Z,19.6
2023-06-21T09:56:39.344Z,19.6
2023-06-21T09:59:39.361Z,19.6
2023-06-21T10:02:39.401Z,19.6
2023-06-21T10:05:39.381Z,19.6
2023-06-21T10:08:39.455Z,19.6
2023-06-21T10:11:39.415Z,19.6
2023-06-21T10:14:39.446Z,19.7
2023-06-21T10:17:42.136Z,19.6
2023-06-21T10:20:39.466Z,19.6
2023-06-21T10:23:39.489Z,19.7
2023-06-21T10:26:39.485Z,19.7
2023-06-21T10:29:39.500Z,19.7
2023-06-21T10:32:39.523Z,19.7
2023-06-21T10:35:39.536Z,19.7
2023-06-21T10:38:39.559Z,19.7
2023-06-21T10:41:39.572Z,19.7
2023-06-21T10:44:39.595Z,19.7
2023-06-21T10:47:39.646Z,19.7
2023-06-21T10:50:39.614Z,19.7
2023-06-21T10:53:39.637Z,19.7
2023-06-21T10:56:39.649Z,19.7
2023-06-21T10:59:39.664Z,19.7
2023-06-21T11:02:39.714Z,19.7
2023-06-21T11:05:39.700Z,19.7
2023-06-21T11:08:39.728Z,19.8
2023-06-21T11:11:39.737Z,19.8
2023-06-21T11:14:39.751Z,19.8
2023-06-21T11:17:39.796Z,19.8
2023-06-21T11:20:39.785Z,19.8
2023-06-21T11:23:39.821Z,19.8
2023-06-21T11:26:39.832Z,19.8
2023-06-21T11:29:39.852Z,19.8
2023-06-21T11:32:39.881Z,19.8
2023-06-21T11:35:39.885Z,19.8
2023-06-21T11:38:39.931Z,19.8
2023-06-21T11:41:39.929Z,19.8
2023-06-21T11:44:39.953Z,19.8
2023-06-21T11:47:39.989Z,19.8
2023-06-21T11:50:39.983Z,19.8
2023-06-21T11:53:40.017Z,19.8
2023-06-21T11:56:40.020Z,19.8
2023-06-21T11:59:40.053Z,19.8
2023-06-21T12:02:40.101Z,19.9
2023-06-21T12:05:40.084Z,19.9
2023-06-21T12:08:40.118Z,19.9
2023-06-21T12:11:40.126Z,19.9
2023-06-21T12:14:40.149Z,19.9
2023-06-21T12:17:40.216Z,19.9
2023-06-21T12:20:40.194Z,19.9
2023-06-21T12:23:40.236Z,19.9
2023-06-21T12:26:40.232Z,19.9
2023-06-21T12:29:40.279Z,19.9
2023-06-21T12:32:40.313Z,19.9
2023-06-21T12:35:40.302Z,19.9
2023-06-21T12:38:40.344Z,19.9
2023-06-21T12:41:40.341Z,19.9
2023-06-21T12:44:40.361Z,19.9
2023-06-21T12:47:40.422Z,20
2023-06-21T12:50:40.427Z,20
2023-06-21T12:53:40.414Z,20
2023-06-21T12:56:40.429Z,20
2023-06-21T12:59:40.433Z,20
2023-06-21T13:02:40.507Z,20
2023-06-21T13:05:40.518Z,20
2023-06-21T13:08:40.460Z,20.1
2023-06-21T13:11:40.459Z,20.1
2023-06-21T13:14:40.470Z,20.1
2023-06-21T13:17:40.495Z,20.1
2023-06-21T13:20:40.521Z,20.1
2023-06-21T13:23:40.490Z,20.1
2023-06-21T13:26:40.498Z,20.1
2023-06-21T13:29:40.479Z,20.1
2023-06-21T13:32:40.513Z,20.1
2023-06-21T13:35:40.508Z,20.1
2023-06-21T13:38:40.525Z,20.1
2023-06-21T13:41:40.506Z,20.1
2023-06-21T13:44:40.505Z,20.1
2023-06-21T13:47:40.586Z,20.2
2023-06-21T13:50:40.534Z,20.2
2023-06-21T13:53:40.536Z,20.2
2023-06-21T13:56:40.536Z,20.2
2023-06-21T13:59:40.542Z,20.2
2023-06-21T14:02:40.597Z,20.2
2023-06-21T14:05:40.539Z,20.2
2023-06-21T14:08:40.551Z,20.3
2023-06-21T14:11:40.562Z,20.3
2023-06-21T14:14:40.548Z,20.3
2023-06-21T14:17:40.640Z,20.3
2023-06-21T14:20:40.579Z,20.3
2023-06-21T14:23:40.865Z,20.3
2023-06-21T14:26:40.586Z,20.3
2023-06-21T14:29:40.593Z,20.3
2023-06-21T14:32:40.593Z,20.3
2023-06-21T14:35:40.599Z,20.3
2023-06-21T14:38:40.659Z,20.3
2023-06-21T14:41:40.592Z,20.3
2023-06-21T14:44:40.632Z,20.3
2023-06-21T14:47:40.673Z,20.4
2023-06-21T14:50:40.627Z,20.4
2023-06-21T14:53:40.617Z,20.4
2023-06-21T14:56:40.619Z,20.4
2023-06-21T14:59:42.135Z,20.4
2023-06-21T15:02:40.699Z,20.4
2023-06-21T15:05:42.836Z,20.4
2023-06-21T15:08:40.666Z,20.4
2023-06-21T15:11:40.639Z,20.4
2023-06-21T15:14:40.645Z,20.4
2023-06-21T15:17:41.142Z,20.4
2023-06-21T15:20:40.666Z,20.4
2023-06-21T15:23:41.363Z,20.4
2023-06-21T15:26:40.671Z,20.4
2023-06-21T15:29:40.665Z,20.4
2023-06-21T15:32:40.684Z,20.4
2023-06-21T15:35:40.697Z,20.4
2023-06-21T15:38:40.711Z,20.5
2023-06-21T15:41:40.685Z,20.5
2023-06-21T15:44:40.687Z,20.5
2023-06-21T15:47:40.848Z,20.5
2023-06-21T15:50:40.715Z,20.5
2023-06-21T15:53:40.727Z,20.5
2023-06-21T15:56:40.724Z,20.5
2023-06-21T15:59:40.725Z,20.5
2023-06-21T16:02:40.764Z,20.5
2023-06-21T16:05:40.712Z,20.5
2023-06-21T16:08:40.734Z,20.6
2023-06-21T16:11:40.745Z,20.6
2023-06-21T16:14:40.732Z,20.6
2023-06-21T16:17:40.759Z,20.6
2023-06-21T16:20:40.742Z,20.6
2023-06-21T16:23:40.771Z,20.6
2023-06-21T16:26:40.760Z,20.6
2023-06-21T16:29:40.762Z,20.6
2023-06-21T16:32:40.813Z,20.6
2023-06-21T16:35:40.788Z,20.6
2023-06-21T16:38:40.804Z,20.6
2023-06-21T16:41:40.793Z,20.6
2023-06-21T16:44:40.805Z,20.6
2023-06-21T16:47:40.822Z,20.6
2023-06-21T16:50:40.803Z,20.6
2023-06-21T16:53:40.807Z,20.6
2023-06-21T16:56:40.800Z,20.6
2023-06-21T16:59:40.812Z,20.6
2023-06-21T17:02:40.852Z,20.6
2023-06-21T17:05:40.824Z,20.6
2023-06-21T17:08:40.845Z,20.6
2023-06-21T17:11:40.854Z,20.6
2023-06-21T17:14:40.848Z,20.6
2023-06-21T17:17:40.851Z,20.6
2023-06-21T17:20:40.850Z,20.6
2023-06-21T17:23:40.869Z,20.6
2023-06-21T17:26:40.869Z,20.6
2023-06-21T17:29:40.886Z,20.7
2023-06-21T17:32:40.949Z,20.7
2023-06-21T17:35:40.874Z,20.7
2023-06-21T17:38:41.095Z,20.7
2023-06-21T17:41:40.875Z,20.7
2023-06-21T17:44:40.904Z,20.7
2023-06-21T17:47:40.954Z,20.7
2023-06-21T17:50:40.895Z,20.7
2023-06-21T17:53:40.908Z,20.7
2023-06-21T17:56:41.046Z,20.7
2023-06-21T17:59:40.896Z,20.7
2023-06-21T18:02:40.969Z,20.7
2023-06-21T18:05:40.922Z,20.7
2023-06-21T18:08:40.929Z,20.7
2023-06-21T18:11:40.941Z,20.7
2023-06-21T18:14:40.939Z,20.7
2023-06-21T18:17:40.947Z,20.7
2023-06-21T18:20:40.950Z,20.7
2023-06-21T18:23:40.945Z,20.7
2023-06-21T18:26:40.960Z,20.7
2023-06-21T18:29:53.358Z,20.7
2023-06-21T18:32:40.971Z,20.7
2023-06-21T18:35:41.008Z,20.7
2023-06-21T18:38:40.971Z,20.7
2023-06-21T18:41:40.974Z,20.7
2023-06-21T18:44:40.971Z,20.7
2023-06-21T18:47:41.015Z,20.7
2023-06-21T18:50:40.990Z,20.7
2023-06-21T18:53:40.998Z,20.7
2023-06-21T18:56:40.993Z,20.7
2023-06-21T18:59:41.007Z,20.7
2023-06-21T19:02:41.100Z,20.7
2023-06-21T19:05:41.032Z,20.7
2023-06-21T19:08:41.018Z,20.7
2023-06-21T19:11:41.029Z,20.7
2023-06-21T19:14:41.026Z,20.8
2023-06-21T19:17:41.044Z,20.7
2023-06-21T19:20:41.038Z,20.8
2023-06-21T19:23:41.037Z,20.8
2023-06-21T19:26:41.046Z,20.8
2023-06-21T19:29:41.061Z,20.7
2023-06-21T19:32:41.114Z,20.7
2023-06-21T19:35:41.097Z,20.8
2023-06-21T19:38:41.066Z,20.7
2023-06-21T19:41:41.068Z,20.8
2023-06-21T19:44:41.079Z,20.8
2023-06-21T19:47:41.260Z,20.8
2023-06-21T19:50:41.082Z,20.8
2023-06-21T19:53:41.088Z,20.8
2023-06-21T19:56:41.091Z,20.8
2023-06-21T19:59:41.109Z,20.8
2023-06-21T20:02:41.207Z,20.8
2023-06-21T20:05:41.115Z,20.7
2023-06-21T20:08:41.117Z,20.7
2023-06-21T20:11:41.124Z,20.8
2023-06-21T20:14:41.129Z,20.8
2023-06-21T20:17:41.139Z,20.8
2023-06-21T20:20:41.139Z,20.7
2023-06-21T20:23:41.145Z,20.8
2023-06-21T20:26:41.178Z,20.7
2023-06-21T20:29:41.153Z,20.7
2023-06-21T20:32:41.159Z,20.7
2023-06-21T20:35:41.158Z,20.7
2023-06-21T20:38:41.156Z,20.8
2023-06-21T20:41:41.164Z,20.7
2023-06-21T20:44:41.163Z,20.7
2023-06-21T20:47:41.215Z,20.7
2023-06-21T20:50:41.186Z,20.7
2023-06-21T20:53:41.794Z,20.7
2023-06-21T20:56:41.208Z,20.7
2023-06-21T20:59:41.195Z,20.7
2023-06-21T21:02:41.228Z,20.7
2023-06-21T21:05:41.216Z,20.7
2023-06-21T21:08:41.209Z,20.7
2023-06-21T21:11:41.220Z,20.7
2023-06-21T21:14:41.221Z,20.7
2023-06-21T21:17:41.261Z,20.7
2023-06-21T21:20:41.238Z,20.7
2023-06-21T21:23:41.221Z,20.7
2023-06-21T21:26:41.246Z,20.7
2023-06-21T21:29:41.233Z,20.7
2023-06-21T21:32:41.276Z,20.7
2023-06-21T21:35:41.272Z,20.7
2023-06-21T21:38:41.254Z,20.7
2023-06-21T21:41:41.262Z,20.7
2023-06-21T21:44:41.272Z,20.7
2023-06-21T21:47:41.295Z,20.7
2023-06-21T21:50:41.271Z,20.7
2023-06-21T21:53:41.289Z,20.7
2023-06-21T21:56:41.282Z,20.7
2023-06-21T21:59:41.295Z,20.7
2023-06-21T22:02:41.401Z,20.6
2023-06-21T22:05:41.305Z,20.6
2023-06-21T22:08:41.298Z,20.6
2023-06-21T22:11:41.307Z,20.6
2023-06-21T22:14:41.308Z,20.6
2023-06-21T22:17:41.323Z,20.6
2023-06-21T22:20:41.326Z,20.6
2023-06-21T22:23:41.329Z,20.6
2023-06-21T22:26:41.330Z,20.6
2023-06-21T22:29:41.330Z,20.6
2023-06-21T22:32:41.358Z,20.6
2023-06-21T22:35:41.342Z,20.6
2023-06-21T22:38:41.345Z,20.6
2023-06-21T22:41:41.421Z,20.6
2023-06-21T22:44:41.356Z,20.6
2023-06-21T22:47:41.378Z,20.6
2023-06-21T22:50:41.372Z,20.6
2023-06-21T22:53:41.369Z,20.6
2023-06-21T22:56:41.380Z,20.6
2023-06-21T22:59:41.385Z,20.6
2023-06-21T23:02:41.453Z,20.6
2023-06-21T23:05:41.394Z,20.6
2023-06-21T23:08:41.400Z,20.6
2023-06-21T23:11:41.404Z,20.6
2023-06-21T23:14:41.412Z,20.6
2023-06-21T23:17:41.415Z,20.6
2023-06-21T23:20:41.433Z,20.6
2023-06-21T23:23:41.450Z,20.6
2023-06-21T23:26:41.437Z,20.6
2023-06-21T23:29:41.437Z,20.6
2023-06-21T23:32:41.465Z,20.6
2023-06-21T23:35:41.430Z,20.6
2023-06-21T23:38:41.441Z,20.6
2023-06-21T23:41:41.458Z,20.6
2023-06-21T23:44:41.450Z,20.6
2023-06-21T23:47:41.492Z,20.6
2023-06-21T23:50:41.460Z,20.6
2023-06-21T23:53:41.458Z,20.6
2023-06-21T23:56:41.463Z,20.6
2023-06-21T23:59:41.462Z,20.5
